sensor_id;sensor_type;location;lat;lon;timestamp;P1;durP1;ratioP1;P2;durP2;ratioP2
45848;SDS011;31567;54.600;9.842;2023-08-30T00:03:25;6.75;;;5.80;;
45848;SDS011;31567;54.600;9.842;2023-08-30T00:07:05;5.75;;;4.72;;
45848;SDS011;31567;54.600;9.842;2023-08-30T00:10:45;5.55;;;4.95;;
45848;SDS011;31567;54.600;9.842;2023-08-30T00:14:25;5.50;;;4.93;;
45848;SDS011;31567;54.600;9.842;2023-08-30T00:18:04;5.15;;;3.85;;
45848;SDS011;31567;54.600;9.842;2023-08-30T00:21:44;6.20;;;4.65;;
45848;SDS011;31567;54.600;9.842;2023-08-30T00:25:24;7.20;;;5.43;;
45848;SDS011;31567;54.600;9.842;2023-08-30T00:29:04;6.90;;;5.80;;
45848;SDS011;31567;54.600;9.842;2023-08-30T00:32:43;6.78;;;5.47;;
45848;SDS011;31567;54.600;9.842;2023-08-30T00:36:23;10.07;;;6.15;;
45848;SDS011;31567;54.600;9.842;2023-08-30T00:40:03;5.90;;;5.38;;
45848;SDS011;31567;54.600;9.842;2023-08-30T00:43:43;9.02;;;4.72;;
45848;SDS011;31567;54.600;9.842;2023-08-30T00:47:23;6.03;;;5.43;;
45848;SDS011;31567;54.600;9.842;2023-08-30T00:51:02;5.88;;;4.85;;
45848;SDS011;31567;54.600;9.842;2023-08-30T00:54:42;7.18;;;6.18;;
45848;SDS011;31567;54.600;9.842;2023-08-30T00:58:21;8.48;;;7.30;;
45848;SDS011;31567;54.600;9.842;2023-08-30T01:02:01;8.68;;;6.03;;
45848;SDS011;31567;54.600;9.842;2023-08-30T01:05:41;7.72;;;5.13;;
45848;SDS011;31567;54.600;9.842;2023-08-30T01:09:20;6.03;;;4.72;;
45848;SDS011;31567;54.600;9.842;2023-08-30T01:13:04;5.10;;;4.70;;
45848;SDS011;31567;54.600;9.842;2023-08-30T01:16:48;5.63;;;4.85;;
45848;SDS011;31567;54.600;9.842;2023-08-30T01:20:27;5.70;;;5.20;;
45848;SDS011;31567;54.600;9.842;2023-08-30T01:24:08;5.72;;;5.20;;
45848;SDS011;31567;54.600;9.842;2023-08-30T01:27:53;8.73;;;5.43;;
45848;SDS011;31567;54.600;9.842;2023-08-30T01:31:33;8.30;;;7.50;;
45848;SDS011;31567;54.600;9.842;2023-08-30T01:35:14;9.80;;;7.05;;
45848;SDS011;31567;54.600;9.842;2023-08-30T01:38:57;9.23;;;7.32;;
45848;SDS011;31567;54.600;9.842;2023-08-30T01:42:38;14.70;;;6.95;;
45848;SDS011;31567;54.600;9.842;2023-08-30T01:46:19;10.13;;;7.03;;
45848;SDS011;31567;54.600;9.842;2023-08-30T01:50:00;8.60;;;7.60;;
45848;SDS011;31567;54.600;9.842;2023-08-30T01:53:40;7.57;;;6.63;;
45848;SDS011;31567;54.600;9.842;2023-08-30T01:57:22;8.68;;;5.85;;
45848;SDS011;31567;54.600;9.842;2023-08-30T02:01:01;7.78;;;6.78;;
45848;SDS011;31567;54.600;9.842;2023-08-30T02:04:41;6.85;;;6.25;;
45848;SDS011;31567;54.600;9.842;2023-08-30T02:08:20;7.65;;;6.95;;
45848;SDS011;31567;54.600;9.842;2023-08-30T02:12:07;12.43;;;9.32;;
45848;SDS011;31567;54.600;9.842;2023-08-30T02:15:54;14.00;;;9.75;;
45848;SDS011;31567;54.600;9.842;2023-08-30T02:19:35;14.07;;;10.38;;
45848;SDS011;31567;54.600;9.842;2023-08-30T02:23:15;14.50;;;10.55;;
45848;SDS011;31567;54.600;9.842;2023-08-30T02:26:54;16.95;;;12.48;;
45848;SDS011;31567;54.600;9.842;2023-08-30T02:30:34;10.43;;;8.70;;
45848;SDS011;31567;54.600;9.842;2023-08-30T02:34:14;10.50;;;9.02;;
45848;SDS011;31567;54.600;9.842;2023-08-30T02:37:53;13.98;;;10.48;;
45848;SDS011;31567;54.600;9.842;2023-08-30T02:41:33;15.57;;;10.90;;
45848;SDS011;31567;54.600;9.842;2023-08-30T02:45:13;20.52;;;13.60;;
45848;SDS011;31567;54.600;9.842;2023-08-30T02:48:52;18.73;;;13.73;;
45848;SDS011;31567;54.600;9.842;2023-08-30T02:52:32;15.95;;;12.77;;
45848;SDS011;31567;54.600;9.842;2023-08-30T02:56:11;16.17;;;12.75;;
45848;SDS011;31567;54.600;9.842;2023-08-30T02:59:51;13.85;;;11.05;;
45848;SDS011;31567;54.600;9.842;2023-08-30T03:03:30;14.77;;;11.25;;
45848;SDS011;31567;54.600;9.842;2023-08-30T03:07:10;15.50;;;11.20;;
45848;SDS011;31567;54.600;9.842;2023-08-30T03:10:50;15.73;;;11.55;;
45848;SDS011;31567;54.600;9.842;2023-08-30T03:14:29;16.92;;;12.13;;
45848;SDS011;31567;54.600;9.842;2023-08-30T03:18:09;14.65;;;10.73;;
45848;SDS011;31567;54.600;9.842;2023-08-30T03:21:48;11.70;;;9.27;;
45848;SDS011;31567;54.600;9.842;2023-08-30T03:25:28;13.45;;;10.98;;
45848;SDS011;31567;54.600;9.842;2023-08-30T03:29:09;13.52;;;9.60;;
45848;SDS011;31567;54.600;9.842;2023-08-30T03:32:49;11.77;;;9.57;;
45848;SDS011;31567;54.600;9.842;2023-08-30T03:36:28;12.75;;;10.30;;
45848;SDS011;31567;54.600;9.842;2023-08-30T03:40:08;12.55;;;9.07;;
45848;SDS011;31567;54.600;9.842;2023-08-30T03:43:48;10.38;;;9.35;;
45848;SDS011;31567;54.600;9.842;2023-08-30T03:47:28;9.65;;;8.65;;
45848;SDS011;31567;54.600;9.842;2023-08-30T03:51:07;11.18;;;8.18;;
45848;SDS011;31567;54.600;9.842;2023-08-30T03:54:47;9.48;;;8.30;;
45848;SDS011;31567;54.600;9.842;2023-08-30T03:58:26;10.13;;;8.32;;
45848;SDS011;31567;54.600;9.842;2023-08-30T04:02:06;8.85;;;7.95;;
45848;SDS011;31567;54.600;9.842;2023-08-30T04:05:45;9.85;;;8.88;;
45848;SDS011;31567;54.600;9.842;2023-08-30T04:09:25;8.95;;;8.00;;
45848;SDS011;31567;54.600;9.842;2023-08-30T04:13:05;10.18;;;9.07;;
45848;SDS011;31567;54.600;9.842;2023-08-30T04:16:45;9.68;;;8.68;;
45848;SDS011;31567;54.600;9.842;2023-08-30T04:20:24;12.68;;;8.27;;
45848;SDS011;31567;54.600;9.842;2023-08-30T04:24:04;9.18;;;8.23;;
45848;SDS011;31567;54.600;9.842;2023-08-30T04:27:44;9.68;;;8.68;;
45848;SDS011;31567;54.600;9.842;2023-08-30T04:31:23;8.70;;;7.80;;
45848;SDS011;31567;54.600;9.842;2023-08-30T04:35:03;8.95;;;8.13;;
45848;SDS011;31567;54.600;9.842;2023-08-30T04:38:43;9.13;;;7.53;;
45848;SDS011;31567;54.600;9.842;2023-08-30T04:42:22;9.93;;;8.57;;
45848;SDS011;31567;54.600;9.842;2023-08-30T04:46:02;10.13;;;8.70;;
45848;SDS011;31567;54.600;9.842;2023-08-30T04:49:42;11.55;;;9.82;;
45848;SDS011;31567;54.600;9.842;2023-08-30T04:53:21;10.00;;;8.98;;
45848;SDS011;31567;54.600;9.842;2023-08-30T04:57:01;11.18;;;9.45;;
45848;SDS011;31567;54.600;9.842;2023-08-30T05:00:40;12.70;;;9.63;;
45848;SDS011;31567;54.600;9.842;2023-08-30T05:04:20;13.45;;;10.15;;
45848;SDS011;31567;54.600;9.842;2023-08-30T05:08:00;11.95;;;10.57;;
45848;SDS011;31567;54.600;9.842;2023-08-30T05:11:39;13.43;;;10.60;;
45848;SDS011;31567;54.600;9.842;2023-08-30T05:15:19;11.13;;;9.68;;
45848;SDS011;31567;54.600;9.842;2023-08-30T05:18:59;17.23;;;10.77;;
45848;SDS011;31567;54.600;9.842;2023-08-30T05:22:38;12.52;;;10.63;;
45848;SDS011;31567;54.600;9.842;2023-08-30T05:26:18;12.07;;;9.95;;
45848;SDS011;31567;54.600;9.842;2023-08-30T05:29:58;10.35;;;8.20;;
45848;SDS011;31567;54.600;9.842;2023-08-30T05:33:38;10.82;;;9.70;;
45848;SDS011;31567;54.600;9.842;2023-08-30T05:37:17;10.77;;;9.18;;
45848;SDS011;31567;54.600;9.842;2023-08-30T05:40:57;15.07;;;10.05;;
45848;SDS011;31567;54.600;9.842;2023-08-30T05:44:36;11.63;;;9.32;;
45848;SDS011;31567;54.600;9.842;2023-08-30T05:48:16;11.68;;;10.48;;
45848;SDS011;31567;54.600;9.842;2023-08-30T05:51:55;11.52;;;9.77;;
45848;SDS011;31567;54.600;9.842;2023-08-30T05:55:35;13.55;;;9.77;;
45848;SDS011;31567;54.600;9.842;2023-08-30T05:59:14;11.10;;;9.23;;
45848;SDS011;31567;54.600;9.842;2023-08-30T06:02:54;11.25;;;8.15;;
45848;SDS011;31567;54.600;9.842;2023-08-30T06:06:34;10.48;;;9.10;;
45848;SDS011;31567;54.600;9.842;2023-08-30T06:10:13;10.75;;;9.60;;
45848;SDS011;31567;54.600;9.842;2023-08-30T06:13:53;11.57;;;9.73;;
45848;SDS011;31567;54.600;9.842;2023-08-30T06:17:33;10.95;;;8.80;;
45848;SDS011;31567;54.600;9.842;2023-08-30T06:21:13;10.48;;;8.60;;
45848;SDS011;31567;54.600;9.842;2023-08-30T06:24:52;11.48;;;9.63;;
45848;SDS011;31567;54.600;9.842;2023-08-30T06:28:32;12.13;;;9.60;;
45848;SDS011;31567;54.600;9.842;2023-08-30T06:32:12;9.77;;;8.38;;
45848;SDS011;31567;54.600;9.842;2023-08-30T06:35:51;13.13;;;8.63;;
45848;SDS011;31567;54.600;9.842;2023-08-30T06:39:32;9.25;;;8.35;;
45848;SDS011;31567;54.600;9.842;2023-08-30T06:43:13;10.60;;;7.78;;
45848;SDS011;31567;54.600;9.842;2023-08-30T06:46:53;8.80;;;8.00;;
45848;SDS011;31567;54.600;9.842;2023-08-30T06:50:33;9.07;;;8.13;;
45848;SDS011;31567;54.600;9.842;2023-08-30T06:54:13;9.18;;;7.40;;
45848;SDS011;31567;54.600;9.842;2023-08-30T06:57:53;9.70;;;8.43;;
45848;SDS011;31567;54.600;9.842;2023-08-30T07:01:33;10.90;;;8.25;;
45848;SDS011;31567;54.600;9.842;2023-08-30T07:05:13;10.20;;;7.72;;
45848;SDS011;31567;54.600;9.842;2023-08-30T07:08:52;10.98;;;7.95;;
45848;SDS011;31567;54.600;9.842;2023-08-30T07:12:32;8.00;;;7.28;;
45848;SDS011;31567;54.600;9.842;2023-08-30T07:16:11;8.90;;;8.10;;
45848;SDS011;31567;54.600;9.842;2023-08-30T07:19:51;8.93;;;7.30;;
45848;SDS011;31567;54.600;9.842;2023-08-30T07:23:30;9.95;;;8.00;;
45848;SDS011;31567;54.600;9.842;2023-08-30T07:27:10;9.02;;;6.50;;
45848;SDS011;31567;54.600;9.842;2023-08-30T07:31:01;8.00;;;7.28;;
45848;SDS011;31567;54.600;9.842;2023-08-30T07:34:41;6.60;;;6.00;;
45848;SDS011;31567;54.600;9.842;2023-08-30T07:38:21;7.38;;;6.55;;
45848;SDS011;31567;54.600;9.842;2023-08-30T07:42:01;6.07;;;5.55;;
45848;SDS011;31567;54.600;9.842;2023-08-30T07:45:40;8.25;;;5.47;;
45848;SDS011;31567;54.600;9.842;2023-08-30T07:49:20;6.47;;;5.88;;
45848;SDS011;31567;54.600;9.842;2023-08-30T07:52:59;6.30;;;5.75;;
45848;SDS011;31567;54.600;9.842;2023-08-30T07:56:39;6.68;;;6.07;;
45848;SDS011;31567;54.600;9.842;2023-08-30T08:00:18;5.88;;;5.38;;
45848;SDS011;31567;54.600;9.842;2023-08-30T08:03:58;5.88;;;5.28;;
45848;SDS011;31567;54.600;9.842;2023-08-30T08:07:38;6.20;;;5.60;;
45848;SDS011;31567;54.600;9.842;2023-08-30T08:11:18;5.97;;;5.35;;
45848;SDS011;31567;54.600;9.842;2023-08-30T08:14:58;6.10;;;5.47;;
45848;SDS011;31567;54.600;9.842;2023-08-30T08:18:37;6.00;;;5.43;;
45848;SDS011;31567;54.600;9.842;2023-08-30T08:22:17;7.00;;;5.72;;
45848;SDS011;31567;54.600;9.842;2023-08-30T08:25:57;5.47;;;4.47;;
45848;SDS011;31567;54.600;9.842;2023-08-30T08:29:37;5.35;;;4.85;;
45848;SDS011;31567;54.600;9.842;2023-08-30T08:33:17;6.07;;;4.95;;
45848;SDS011;31567;54.600;9.842;2023-08-30T08:36:57;4.88;;;4.38;;
45848;SDS011;31567;54.600;9.842;2023-08-30T08:40:37;5.28;;;4.88;;
45848;SDS011;31567;54.600;9.842;2023-08-30T08:44:18;5.88;;;5.38;;
45848;SDS011;31567;54.600;9.842;2023-08-30T08:47:58;5.70;;;5.20;;
45848;SDS011;31567;54.600;9.842;2023-08-30T08:51:38;5.40;;;4.43;;
45848;SDS011;31567;54.600;9.842;2023-08-30T08:55:18;7.78;;;7.00;;
45848;SDS011;31567;54.600;9.842;2023-08-30T08:58:59;5.43;;;5.03;;
45848;SDS011;31567;54.600;9.842;2023-08-30T09:02:39;6.10;;;5.13;;
45848;SDS011;31567;54.600;9.842;2023-08-30T09:06:19;6.95;;;6.07;;
45848;SDS011;31567;54.600;9.842;2023-08-30T09:10:00;6.50;;;3.03;;
45848;SDS011;31567;54.600;9.842;2023-08-30T09:13:41;11.07;;;6.13;;
45848;SDS011;31567;54.600;9.842;2023-08-30T09:17:22;7.80;;;6.97;;
45848;SDS011;31567;54.600;9.842;2023-08-30T09:21:05;8.95;;;7.50;;
45848;SDS011;31567;54.600;9.842;2023-08-30T09:28:28;8.98;;;8.00;;
45848;SDS011;31567;54.600;9.842;2023-08-30T09:32:08;9.85;;;8.85;;
45848;SDS011;31567;54.600;9.842;2023-08-30T09:35:48;8.35;;;7.55;;
45848;SDS011;31567;54.600;9.842;2023-08-30T09:39:28;7.90;;;7.10;;
45848;SDS011;31567;54.600;9.842;2023-08-30T09:43:07;7.80;;;6.60;;
45848;SDS011;31567;54.600;9.842;2023-08-30T09:46:51;8.43;;;7.25;;
45848;SDS011;31567;54.600;9.842;2023-08-30T09:50:33;8.20;;;7.40;;
45848;SDS011;31567;54.600;9.842;2023-08-30T09:57:54;7.63;;;5.90;;
45848;SDS011;31567;54.600;9.842;2023-08-30T10:01:34;7.65;;;6.97;;
45848;SDS011;31567;54.600;9.842;2023-08-30T10:05:14;7.70;;;6.18;;
45848;SDS011;31567;54.600;9.842;2023-08-30T10:08:55;10.63;;;6.60;;
45848;SDS011;31567;54.600;9.842;2023-08-30T10:12:36;8.90;;;7.38;;
45848;SDS011;31567;54.600;9.842;2023-08-30T10:16:18;8.15;;;6.35;;
45848;SDS011;31567;54.600;9.842;2023-08-30T10:20:04;6.95;;;5.45;;
45848;SDS011;31567;54.600;9.842;2023-08-30T10:23:46;6.07;;;5.45;;
45848;SDS011;31567;54.600;9.842;2023-08-30T10:27:30;5.68;;;5.18;;
45848;SDS011;31567;54.600;9.842;2023-08-30T10:31:12;5.13;;;4.70;;
45848;SDS011;31567;54.600;9.842;2023-08-30T10:34:52;6.30;;;5.20;;
45848;SDS011;31567;54.600;9.842;2023-08-30T10:38:32;5.30;;;4.80;;
45848;SDS011;31567;54.600;9.842;2023-08-30T10:42:13;5.45;;;4.90;;
45848;SDS011;31567;54.600;9.842;2023-08-30T10:46:05;5.80;;;4.50;;
45848;SDS011;31567;54.600;9.842;2023-08-30T10:49:50;7.47;;;4.43;;
45848;SDS011;31567;54.600;9.842;2023-08-30T10:53:32;6.63;;;5.97;;
45848;SDS011;31567;54.600;9.842;2023-08-30T10:57:12;7.35;;;6.43;;
45848;SDS011;31567;54.600;9.842;2023-08-30T11:00:53;7.82;;;5.43;;
45848;SDS011;31567;54.600;9.842;2023-08-30T11:04:34;7.20;;;5.45;;
45848;SDS011;31567;54.600;9.842;2023-08-30T11:08:20;5.47;;;4.68;;
45848;SDS011;31567;54.600;9.842;2023-08-30T11:12:04;5.80;;;5.30;;
45848;SDS011;31567;54.600;9.842;2023-08-30T11:15:44;7.45;;;5.60;;
45848;SDS011;31567;54.600;9.842;2023-08-30T11:19:23;7.78;;;5.82;;
45848;SDS011;31567;54.600;9.842;2023-08-30T11:23:08;5.68;;;5.18;;
45848;SDS011;31567;54.600;9.842;2023-08-30T11:26:52;4.97;;;4.57;;
45848;SDS011;31567;54.600;9.842;2023-08-30T11:30:32;7.57;;;6.50;;
45848;SDS011;31567;54.600;9.842;2023-08-30T11:34:12;5.25;;;4.60;;
45848;SDS011;31567;54.600;9.842;2023-08-30T11:37:51;5.40;;;4.90;;
45848;SDS011;31567;54.600;9.842;2023-08-30T11:41:31;8.20;;;5.47;;
45848;SDS011;31567;54.600;9.842;2023-08-30T11:45:10;6.72;;;5.63;;
45848;SDS011;31567;54.600;9.842;2023-08-30T11:48:53;6.13;;;5.50;;
45848;SDS011;31567;54.600;9.842;2023-08-30T11:52:33;6.43;;;5.53;;
45848;SDS011;31567;54.600;9.842;2023-08-30T11:56:15;5.78;;;5.15;;
45848;SDS011;31567;54.600;9.842;2023-08-30T11:59:55;5.03;;;4.63;;
45848;SDS011;31567;54.600;9.842;2023-08-30T12:03:49;5.38;;;4.90;;
45848;SDS011;31567;54.600;9.842;2023-08-30T12:07:29;6.20;;;5.60;;
45848;SDS011;31567;54.600;9.842;2023-08-30T12:11:17;6.13;;;5.25;;
45848;SDS011;31567;54.600;9.842;2023-08-30T12:14:58;6.68;;;5.70;;
45848;SDS011;31567;54.600;9.842;2023-08-30T12:18:38;9.38;;;6.20;;
45848;SDS011;31567;54.600;9.842;2023-08-30T12:22:17;5.55;;;5.05;;
45848;SDS011;31567;54.600;9.842;2023-08-30T12:29:40;6.97;;;5.65;;
45848;SDS011;31567;54.600;9.842;2023-08-30T12:33:20;6.40;;;5.65;;
45848;SDS011;31567;54.600;9.842;2023-08-30T12:36:59;11.40;;;5.47;;
45848;SDS011;31567;54.600;9.842;2023-08-30T12:40:40;6.95;;;5.72;;
45848;SDS011;31567;54.600;9.842;2023-08-30T12:44:20;6.45;;;5.43;;
45848;SDS011;31567;54.600;9.842;2023-08-30T12:48:00;5.88;;;5.38;;
45848;SDS011;31567;54.600;9.842;2023-08-30T12:51:39;6.47;;;5.88;;
45848;SDS011;31567;54.600;9.842;2023-08-30T12:55:19;5.63;;;5.07;;
45848;SDS011;31567;54.600;9.842;2023-08-30T12:58:58;6.13;;;5.53;;
45848;SDS011;31567;54.600;9.842;2023-08-30T13:02:38;3.92;;;3.03;;
45848;SDS011;31567;54.600;9.842;2023-08-30T13:06:18;5.95;;;4.80;;
45848;SDS011;31567;54.600;9.842;2023-08-30T13:09:57;5.53;;;3.90;;
45848;SDS011;31567;54.600;9.842;2023-08-30T13:13:37;5.65;;;4.38;;
45848;SDS011;31567;54.600;9.842;2023-08-30T13:17:16;5.00;;;4.50;;
45848;SDS011;31567;54.600;9.842;2023-08-30T13:20:56;5.80;;;4.13;;
45848;SDS011;31567;54.600;9.842;2023-08-30T13:24:36;8.43;;;6.00;;
45848;SDS011;31567;54.600;9.842;2023-08-30T13:28:15;5.10;;;4.47;;
45848;SDS011;31567;54.600;9.842;2023-08-30T13:31:55;5.45;;;4.68;;
45848;SDS011;31567;54.600;9.842;2023-08-30T13:35:35;5.93;;;5.43;;
45848;SDS011;31567;54.600;9.842;2023-08-30T13:39:14;5.30;;;4.80;;
45848;SDS011;31567;54.600;9.842;2023-08-30T13:42:54;5.35;;;4.85;;
45848;SDS011;31567;54.600;9.842;2023-08-30T13:46:33;5.07;;;4.57;;
45848;SDS011;31567;54.600;9.842;2023-08-30T13:50:13;5.10;;;4.60;;
45848;SDS011;31567;54.600;9.842;2023-08-30T13:53:52;4.65;;;4.25;;
45848;SDS011;31567;54.600;9.842;2023-08-30T13:57:32;4.75;;;4.35;;
45848;SDS011;31567;54.600;9.842;2023-08-30T14:01:11;5.10;;;4.70;;
45848;SDS011;31567;54.600;9.842;2023-08-30T14:04:51;4.32;;;3.92;;
45848;SDS011;31567;54.600;9.842;2023-08-30T14:08:31;4.32;;;4.03;;
45848;SDS011;31567;54.600;9.842;2023-08-30T14:12:10;4.90;;;4.40;;
45848;SDS011;31567;54.600;9.842;2023-08-30T14:15:50;4.85;;;4.32;;
45848;SDS011;31567;54.600;9.842;2023-08-30T14:19:29;5.38;;;3.92;;
45848;SDS011;31567;54.600;9.842;2023-08-30T14:23:09;3.97;;;3.65;;
45848;SDS011;31567;54.600;9.842;2023-08-30T14:26:49;4.75;;;4.10;;
45848;SDS011;31567;54.600;9.842;2023-08-30T14:30:29;4.80;;;4.38;;
45848;SDS011;31567;54.600;9.842;2023-08-30T14:34:09;4.60;;;3.92;;
45848;SDS011;31567;54.600;9.842;2023-08-30T14:37:48;5.22;;;4.40;;
45848;SDS011;31567;54.600;9.842;2023-08-30T14:41:28;4.03;;;3.72;;
45848;SDS011;31567;54.600;9.842;2023-08-30T14:45:08;5.00;;;4.50;;
45848;SDS011;31567;54.600;9.842;2023-08-30T14:48:47;4.55;;;4.15;;
45848;SDS011;31567;54.600;9.842;2023-08-30T14:52:27;5.13;;;4.63;;
45848;SDS011;31567;54.600;9.842;2023-08-30T14:56:10;5.00;;;4.50;;
45848;SDS011;31567;54.600;9.842;2023-08-30T14:59:50;6.13;;;4.63;;
45848;SDS011;31567;54.600;9.842;2023-08-30T15:03:30;5.40;;;4.90;;
45848;SDS011;31567;54.600;9.842;2023-08-30T15:07:09;7.22;;;5.03;;
45848;SDS011;31567;54.600;9.842;2023-08-30T15:10:49;4.90;;;4.47;;
45848;SDS011;31567;54.600;9.842;2023-08-30T15:14:31;5.57;;;5.07;;
45848;SDS011;31567;54.600;9.842;2023-08-30T15:18:11;6.22;;;4.40;;
45848;SDS011;31567;54.600;9.842;2023-08-30T15:21:51;6.00;;;5.07;;
45848;SDS011;31567;54.600;9.842;2023-08-30T15:25:30;6.07;;;5.47;;
45848;SDS011;31567;54.600;9.842;2023-08-30T15:29:10;5.55;;;5.03;;
45848;SDS011;31567;54.600;9.842;2023-08-30T15:32:49;5.22;;;4.63;;
45848;SDS011;31567;54.600;9.842;2023-08-30T15:36:29;8.23;;;4.70;;
45848;SDS011;31567;54.600;9.842;2023-08-30T15:40:09;6.13;;;5.38;;
45848;SDS011;31567;54.600;9.842;2023-08-30T15:43:49;5.93;;;4.60;;
45848;SDS011;31567;54.600;9.842;2023-08-30T15:47:29;5.60;;;4.38;;
45848;SDS011;31567;54.600;9.842;2023-08-30T15:51:08;5.30;;;4.82;;
45848;SDS011;31567;54.600;9.842;2023-08-30T15:54:48;6.00;;;4.32;;
45848;SDS011;31567;54.600;9.842;2023-08-30T15:58:27;6.70;;;4.22;;
45848;SDS011;31567;54.600;9.842;2023-08-30T16:02:07;4.63;;;4.15;;
45848;SDS011;31567;54.600;9.842;2023-08-30T16:05:46;4.70;;;3.92;;
45848;SDS011;31567;54.600;9.842;2023-08-30T16:09:26;6.72;;;4.90;;
45848;SDS011;31567;54.600;9.842;2023-08-30T16:13:05;5.28;;;4.78;;
45848;SDS011;31567;54.600;9.842;2023-08-30T16:16:45;4.97;;;4.57;;
45848;SDS011;31567;54.600;9.842;2023-08-30T16:20:24;6.80;;;5.10;;
45848;SDS011;31567;54.600;9.842;2023-08-30T16:24:04;4.88;;;4.47;;
45848;SDS011;31567;54.600;9.842;2023-08-30T16:27:44;5.47;;;4.30;;
45848;SDS011;31567;54.600;9.842;2023-08-30T16:31:33;5.50;;;4.38;;
45848;SDS011;31567;54.600;9.842;2023-08-30T16:35:13;4.90;;;4.50;;
45848;SDS011;31567;54.600;9.842;2023-08-30T16:38:53;5.82;;;4.47;;
45848;SDS011;31567;54.600;9.842;2023-08-30T16:42:32;4.65;;;4.18;;
45848;SDS011;31567;54.600;9.842;2023-08-30T16:46:12;5.20;;;4.70;;
45848;SDS011;31567;54.600;9.842;2023-08-30T16:49:51;4.78;;;4.38;;
45848;SDS011;31567;54.600;9.842;2023-08-30T16:53:33;5.13;;;4.45;;
45848;SDS011;31567;54.600;9.842;2023-08-30T16:57:13;7.63;;;6.80;;
45848;SDS011;31567;54.600;9.842;2023-08-30T17:00:53;7.10;;;6.50;;
45848;SDS011;31567;54.600;9.842;2023-08-30T17:04:32;7.22;;;6.53;;
45848;SDS011;31567;54.600;9.842;2023-08-30T17:08:12;8.30;;;6.95;;
45848;SDS011;31567;54.600;9.842;2023-08-30T17:11:51;7.85;;;7.05;;
45848;SDS011;31567;54.600;9.842;2023-08-30T17:15:31;6.60;;;6.00;;
45848;SDS011;31567;54.600;9.842;2023-08-30T17:19:11;7.28;;;6.57;;
45848;SDS011;31567;54.600;9.842;2023-08-30T17:22:50;7.47;;;6.78;;
45848;SDS011;31567;54.600;9.842;2023-08-30T17:26:30;7.75;;;6.95;;
45848;SDS011;31567;54.600;9.842;2023-08-30T17:30:10;7.88;;;6.78;;
45848;SDS011;31567;54.600;9.842;2023-08-30T17:33:52;8.15;;;7.35;;
45848;SDS011;31567;54.600;9.842;2023-08-30T17:37:32;8.63;;;7.72;;
45848;SDS011;31567;54.600;9.842;2023-08-30T17:41:12;8.15;;;7.35;;
45848;SDS011;31567;54.600;9.842;2023-08-30T17:44:52;7.82;;;7.03;;
45848;SDS011;31567;54.600;9.842;2023-08-30T17:48:31;7.85;;;7.10;;
45848;SDS011;31567;54.600;9.842;2023-08-30T17:52:12;8.35;;;7.50;;
45848;SDS011;31567;54.600;9.842;2023-08-30T17:55:55;7.85;;;6.57;;
45848;SDS011;31567;54.600;9.842;2023-08-30T17:59:35;7.97;;;7.28;;
45848;SDS011;31567;54.600;9.842;2023-08-30T18:03:15;7.68;;;6.88;;
45848;SDS011;31567;54.600;9.842;2023-08-30T18:06:55;16.40;;;8.18;;
45848;SDS011;31567;54.600;9.842;2023-08-30T18:10:35;7.82;;;7.03;;
45848;SDS011;31567;54.600;9.842;2023-08-30T18:14:15;7.75;;;6.72;;
45848;SDS011;31567;54.600;9.842;2023-08-30T18:17:54;7.20;;;6.50;;
45848;SDS011;31567;54.600;9.842;2023-08-30T18:21:34;7.63;;;6.97;;
45848;SDS011;31567;54.600;9.842;2023-08-30T18:25:13;10.90;;;6.32;;
45848;SDS011;31567;54.600;9.842;2023-08-30T18:28:53;9.15;;;8.23;;
45848;SDS011;31567;54.600;9.842;2023-08-30T18:32:34;9.38;;;7.90;;
45848;SDS011;31567;54.600;9.842;2023-08-30T18:36:13;11.13;;;9.73;;
45848;SDS011;31567;54.600;9.842;2023-08-30T18:39:53;9.18;;;8.05;;
45848;SDS011;31567;54.600;9.842;2023-08-30T18:43:32;10.77;;;6.88;;
45848;SDS011;31567;54.600;9.842;2023-08-30T18:47:12;11.25;;;7.95;;
45848;SDS011;31567;54.600;9.842;2023-08-30T18:50:56;10.90;;;8.25;;
45848;SDS011;31567;54.600;9.842;2023-08-30T18:54:35;9.77;;;7.50;;
45848;SDS011;31567;54.600;9.842;2023-08-30T18:58:18;9.50;;;8.63;;
45848;SDS011;31567;54.600;9.842;2023-08-30T19:01:57;8.63;;;7.80;;
45848;SDS011;31567;54.600;9.842;2023-08-30T19:05:37;8.88;;;7.60;;
45848;SDS011;31567;54.600;9.842;2023-08-30T19:09:18;7.78;;;7.05;;
45848;SDS011;31567;54.600;9.842;2023-08-30T19:12:58;9.85;;;8.95;;
45848;SDS011;31567;54.600;9.842;2023-08-30T19:16:37;10.27;;;9.27;;
45848;SDS011;31567;54.600;9.842;2023-08-30T19:20:17;10.30;;;9.18;;
45848;SDS011;31567;54.600;9.842;2023-08-30T19:23:56;10.32;;;8.70;;
45848;SDS011;31567;54.600;9.842;2023-08-30T19:27:36;9.57;;;7.22;;
45848;SDS011;31567;54.600;9.842;2023-08-30T19:31:15;9.20;;;8.15;;
45848;SDS011;31567;54.600;9.842;2023-08-30T19:34:55;9.60;;;8.07;;
45848;SDS011;31567;54.600;9.842;2023-08-30T19:38:34;10.52;;;9.52;;
45848;SDS011;31567;54.600;9.842;2023-08-30T19:42:14;10.90;;;9.57;;
45848;SDS011;31567;54.600;9.842;2023-08-30T19:46:02;9.95;;;9.05;;
45848;SDS011;31567;54.600;9.842;2023-08-30T19:49:43;10.20;;;9.20;;
45848;SDS011;31567;54.600;9.842;2023-08-30T19:53:23;10.05;;;9.07;;
45848;SDS011;31567;54.600;9.842;2023-08-30T19:57:02;9.90;;;9.00;;
45848;SDS011;31567;54.600;9.842;2023-08-30T20:00:42;11.65;;;10.52;;
45848;SDS011;31567;54.600;9.842;2023-08-30T20:04:22;10.02;;;9.13;;
45848;SDS011;31567;54.600;9.842;2023-08-30T20:08:03;10.50;;;9.48;;
45848;SDS011;31567;54.600;9.842;2023-08-30T20:11:43;10.38;;;9.40;;
45848;SDS011;31567;54.600;9.842;2023-08-30T20:15:23;10.55;;;9.45;;
45848;SDS011;31567;54.600;9.842;2023-08-30T20:19:06;9.73;;;8.93;;
45848;SDS011;31567;54.600;9.842;2023-08-30T20:22:46;10.07;;;8.63;;
45848;SDS011;31567;54.600;9.842;2023-08-30T20:26:25;11.27;;;10.07;;
45848;SDS011;31567;54.600;9.842;2023-08-30T20:30:05;11.80;;;9.90;;
45848;SDS011;31567;54.600;9.842;2023-08-30T20:33:45;12.48;;;11.27;;
45848;SDS011;31567;54.600;9.842;2023-08-30T20:37:27;12.10;;;10.80;;
45848;SDS011;31567;54.600;9.842;2023-08-30T20:41:07;12.02;;;10.82;;
45848;SDS011;31567;54.600;9.842;2023-08-30T20:44:46;13.43;;;12.05;;
45848;SDS011;31567;54.600;9.842;2023-08-30T20:48:26;14.57;;;12.00;;
45848;SDS011;31567;54.600;9.842;2023-08-30T20:52:05;13.13;;;11.93;;
45848;SDS011;31567;54.600;9.842;2023-08-30T20:55:46;13.05;;;11.85;;
45848;SDS011;31567;54.600;9.842;2023-08-30T20:59:25;13.60;;;12.40;;
45848;SDS011;31567;54.600;9.842;2023-08-30T21:03:05;13.80;;;12.43;;
45848;SDS011;31567;54.600;9.842;2023-08-30T21:06:45;13.55;;;12.20;;
45848;SDS011;31567;54.600;9.842;2023-08-30T21:10:25;13.40;;;12.15;;
45848;SDS011;31567;54.600;9.842;2023-08-30T21:14:04;13.38;;;12.27;;
45848;SDS011;31567;54.600;9.842;2023-08-30T21:17:44;13.23;;;12.02;;
45848;SDS011;31567;54.600;9.842;2023-08-30T21:21:23;12.88;;;11.73;;
45848;SDS011;31567;54.600;9.842;2023-08-30T21:25:03;13.55;;;12.25;;
45848;SDS011;31567;54.600;9.842;2023-08-30T21:28:45;13.45;;;12.25;;
45848;SDS011;31567;54.600;9.842;2023-08-30T21:32:26;13.93;;;12.63;;
45848;SDS011;31567;54.600;9.842;2023-08-30T21:36:05;13.82;;;12.50;;
45848;SDS011;31567;54.600;9.842;2023-08-30T21:39:50;13.45;;;12.25;;
45848;SDS011;31567;54.600;9.842;2023-08-30T21:43:29;14.02;;;12.70;;
45848;SDS011;31567;54.600;9.842;2023-08-30T21:47:09;14.38;;;12.98;;
45848;SDS011;31567;54.600;9.842;2023-08-30T21:50:49;13.90;;;12.63;;
45848;SDS011;31567;54.600;9.842;2023-08-30T21:54:29;14.02;;;12.63;;
45848;SDS011;31567;54.600;9.842;2023-08-30T21:58:08;14.30;;;12.20;;
45848;SDS011;31567;54.600;9.842;2023-08-30T22:01:48;15.60;;;13.55;;
45848;SDS011;31567;54.600;9.842;2023-08-30T22:05:27;14.93;;;13.52;;
45848;SDS011;31567;54.600;9.842;2023-08-30T22:09:07;14.65;;;13.15;;